Ambrose, Georgia
Current Conditions -  °F | °C
As of 12:35 AM on Tuesday 27 Jan 2015 (Local Time) from KDQH Reporting Station
Broken Clouds Broken Clouds  
Wind Chill: 40°   Ceiling: 9000
Heat Index: 43°   Visibility: 10mi
Dew Point: 32°   Wind: 5mph
Humidity: 66%   Direction: 300°WNW
Pressure: 29.96"   Gusts: NA
Location:  31.59°N, 83.01°W
Report Text: KDQH 270535Z AUTO 30004KT 10SM BKN090 BKN120 06/00 A2996 RMK AO2
Loading
Personal Weather Stations






























Interactive Weather Map New forecast layout! Learn more

10-Day Weather Forecast

Advertisements
Track Severe Weather on mobile